createdAt,value
2017-04-29T00:01:04.346Z,1016.46
2017-04-29T00:02:26.101Z,1016.47
2017-04-29T00:03:47.940Z,1016.48
2017-04-29T00:05:09.460Z,1016.51
2017-04-29T00:06:31.321Z,1016.48
2017-04-29T00:07:53.745Z,1016.47
2017-04-29T00:09:15.580Z,1016.48
2017-04-29T00:10:37.411Z,1016.47
2017-04-29T00:11:58.964Z,1016.42
2017-04-29T00:13:21.477Z,1016.46
2017-04-29T00:14:43.620Z,1016.41
2017-04-29T00:16:05.847Z,1016.44
2017-04-29T00:17:27.979Z,1016.4
2017-04-29T00:18:49.766Z,1016.44
2017-04-29T00:20:11.613Z,1016.43
2017-04-29T00:21:33.742Z,1016.48
2017-04-29T00:22:55.884Z,1016.49
2017-04-29T00:24:18.606Z,1016.46
2017-04-29T00:25:40.780Z,1016.44
2017-04-29T00:27:01.977Z,1016.46
2017-04-29T00:28:24.218Z,1016.47
2017-04-29T00:29:46.631Z,1016.46
2017-04-29T00:31:08.812Z,1016.5
2017-04-29T00:32:30.631Z,1016.47
2017-04-29T00:33:52.467Z,1016.49
2017-04-29T00:35:14.908Z,1016.47
2017-04-29T00:36:37.038Z,1016.49
2017-04-29T00:37:59.257Z,1016.5
2017-04-29T00:39:21.806Z,1016.46
2017-04-29T00:40:44.306Z,1016.44
2017-04-29T00:42:05.841Z,1016.41
2017-04-29T00:43:27.681Z,1016.47
2017-04-29T00:44:48.866Z,1016.46
2017-04-29T00:46:10.318Z,1016.44
2017-04-29T00:47:32.151Z,1016.47
2017-04-29T00:48:54.411Z,1016.48
2017-04-29T00:50:16.568Z,1016.46
2017-04-29T00:51:38.734Z,1016.48
2017-04-29T00:53:01.003Z,1016.46
2017-04-29T00:54:23.153Z,1016.54
2017-04-29T00:55:44.661Z,1016.58
2017-04-29T00:57:06.721Z,1016.6
2017-04-29T00:58:28.550Z,1016.6
2017-04-29T00:59:50.371Z,1016.59
2017-04-29T01:01:12.240Z,1016.64
2017-04-29T01:02:34.638Z,1016.65
2017-04-29T01:03:56.558Z,1016.64
2017-04-29T01:05:18.697Z,1016.66
2017-04-29T01:06:40.851Z,1016.65
2017-04-29T01:08:02.993Z,1016.66
2017-04-29T01:09:24.177Z,1016.65
2017-04-29T01:10:46.320Z,1016.69
2017-04-29T01:12:08.488Z,1016.69
2017-04-29T01:13:30.690Z,1016.66
2017-04-29T01:14:52.215Z,1016.68
2017-04-29T01:16:14.390Z,1016.72
2017-04-29T01:17:35.931Z,1016.66
2017-04-29T01:18:57.364Z,1016.66
2017-04-29T01:20:18.888Z,1016.72
2017-04-29T01:21:40.726Z,1016.74
2017-04-29T01:23:02.913Z,1016.73
2017-04-29T01:24:25.300Z,1016.74
2017-04-29T01:25:47.821Z,1016.72
2017-04-29T01:27:09.320Z,1016.71
2017-04-29T01:28:31.141Z,1016.71
2017-04-29T01:29:52.975Z,1016.74
2017-04-29T01:31:14.785Z,1016.73
2017-04-29T01:32:36.923Z,1016.73
2017-04-29T01:33:58.211Z,1016.74
2017-04-29T01:35:20.292Z,1016.76
2017-04-29T01:36:42.730Z,1016.81
2017-04-29T01:38:04.360Z,1016.84
2017-04-29T01:39:25.891Z,1016.8
2017-04-29T01:40:48.025Z,1016.87
2017-04-29T01:42:10.481Z,1016.84
2017-04-29T01:43:32.331Z,1016.84
2017-04-29T01:44:54.270Z,1016.89
2017-04-29T01:46:16.481Z,1016.93
2017-04-29T01:47:38.389Z,1016.96
2017-04-29T01:49:00.239Z,1016.95
2017-04-29T01:50:21.761Z,1016.98
2017-04-29T01:51:43.511Z,1016.92
2017-04-29T01:53:05.957Z,1016.89
2017-04-29T01:54:28.433Z,1016.94
2017-04-29T01:55:50.327Z,1016.92
2017-04-29T01:57:13.029Z,1016.95
2017-04-29T01:58:35.168Z,1016.97
2017-04-29T01:59:57.313Z,1016.94
2017-04-29T02:01:18.820Z,1016.96
2017-04-29T02:02:40.946Z,1016.94
2017-04-29T02:04:03.085Z,1016.96
2017-04-29T02:05:25.240Z,1016.98
2017-04-29T02:06:47.403Z,1016.97
2017-04-29T02:08:09.791Z,1016.99
2017-04-29T02:09:31.938Z,1017
2017-04-29T02:10:53.141Z,1017.05
2017-04-29T02:12:15.271Z,1017.06
2017-04-29T02:13:37.450Z,1017.07
2017-04-29T02:15:00.139Z,1017.1
2017-04-29T02:16:22.594Z,1017.14
2017-04-29T02:17:44.413Z,1017.09
2017-04-29T02:19:06.181Z,1017.1
2017-04-29T02:20:28.319Z,1017.07
2017-04-29T02:21:50.446Z,1017.1
2017-04-29T02:23:12.909Z,1017.09
2017-04-29T02:24:34.745Z,1017.1
2017-04-29T02:25:56.927Z,1017.19
2017-04-29T02:27:19.064Z,1017.16
2017-04-29T02:28:41.259Z,1017.16
2017-04-29T02:30:03.762Z,1017.15
2017-04-29T02:31:25.899Z,1017.15
2017-04-29T02:32:48.068Z,1017.15
2017-04-29T02:34:09.867Z,1017.17
2017-04-29T02:35:31.301Z,1017.14
2017-04-29T02:36:53.440Z,1017.14
2017-04-29T02:38:15.920Z,1017.12
2017-04-29T02:39:37.428Z,1017.14
2017-04-29T02:40:59.921Z,1017.12
2017-04-29T02:42:21.436Z,1017.12
2017-04-29T02:43:43.330Z,1017.11
2017-04-29T02:45:04.549Z,1017.15
2017-04-29T02:46:26.340Z,1017.17
2017-04-29T02:47:47.844Z,1017.2
2017-04-29T02:49:09.779Z,1017.2
2017-04-29T02:50:31.279Z,1017.21
2017-04-29T02:51:53.998Z,1017.2
2017-04-29T02:53:15.607Z,1017.24
2017-04-29T02:54:36.791Z,1017.23
2017-04-29T02:55:58.334Z,1017.25
2017-04-29T02:57:20.222Z,1017.24
2017-04-29T02:58:42.497Z,1017.27
2017-04-29T03:00:04.067Z,1017.26
2017-04-29T03:01:25.555Z,1017.27
2017-04-29T03:02:47.641Z,1017.25
2017-04-29T03:04:09.476Z,1017.24
2017-04-29T03:05:31.042Z,1017.22
2017-04-29T03:06:52.541Z,1017.3
2017-04-29T03:08:14.616Z,1017.29
2017-04-29T03:09:36.140Z,1017.29
2017-04-29T03:10:58.269Z,1017.25
2017-04-29T03:12:20.089Z,1017.31
2017-04-29T03:13:42.293Z,1017.3
2017-04-29T03:15:04.106Z,1017.3
2017-04-29T03:16:25.608Z,1017.27
2017-04-29T03:17:47.441Z,1017.28
2017-04-29T03:19:09.605Z,1017.22
2017-04-29T03:20:31.416Z,1017.28
2017-04-29T03:21:53.542Z,1017.28
2017-04-29T03:23:15.376Z,1017.26
2017-04-29T03:24:37.194Z,1017.26
2017-04-29T03:25:59.338Z,1017.26
2017-04-29T03:27:21.139Z,1017.23
2017-04-29T03:28:42.697Z,1017.22
2017-04-29T03:30:04.149Z,1017.25
2017-04-29T03:31:25.988Z,1017.22
2017-04-29T03:32:48.178Z,1017.22
2017-04-29T03:34:09.803Z,1017.28
2017-04-29T03:35:32.248Z,1017.25
2017-04-29T03:36:53.822Z,1017.22
2017-04-29T03:38:15.362Z,1017.23
2017-04-29T03:39:36.891Z,1017.22
2017-04-29T03:40:59.026Z,1017.22
2017-04-29T03:42:20.536Z,1017.24
2017-04-29T03:43:42.368Z,1017.16
2017-04-29T03:45:03.897Z,1017.22
2017-04-29T03:46:26.566Z,1017.24
2017-04-29T03:47:48.070Z,1017.21
2017-04-29T03:49:10.208Z,1017.19
2017-04-29T03:50:32.398Z,1017.19
2017-04-29T03:51:54.760Z,1017.2
2017-04-29T03:53:16.339Z,1017.23
2017-04-29T03:54:38.509Z,1017.25
2017-04-29T03:56:00.344Z,1017.25
2017-04-29T03:57:22.540Z,1017.24
2017-04-29T03:58:44.488Z,1017.25
2017-04-29T04:00:07.037Z,1017.27
2017-04-29T04:01:29.004Z,1017.28
2017-04-29T04:02:51.079Z,1017.32
2017-04-29T04:04:13.018Z,1017.33
2017-04-29T04:05:34.540Z,1017.31
2017-04-29T04:06:56.390Z,1017.29
2017-04-29T04:08:18.138Z,1017.35
2017-04-29T04:09:40.288Z,1017.36
2017-04-29T04:11:02.759Z,1017.34
2017-04-29T04:12:24.895Z,1017.41
2017-04-29T04:13:47.066Z,1017.45
2017-04-29T04:15:09.225Z,1017.46
2017-04-29T04:16:30.749Z,1017.42
2017-04-29T04:17:52.569Z,1017.44
2017-04-29T04:19:15.117Z,1017.46
2017-04-29T04:20:37.072Z,1017.44
2017-04-29T04:21:59.224Z,1017.45
2017-04-29T04:23:20.734Z,1017.47
2017-04-29T04:24:43.129Z,1017.47
2017-04-29T04:26:04.966Z,1017.45
2017-04-29T04:27:26.838Z,1017.47
2017-04-29T04:28:48.978Z,1017.48
2017-04-29T04:30:10.728Z,1017.51
2017-04-29T04:31:32.577Z,1017.53
2017-04-29T04:32:54.078Z,1017.5
2017-04-29T04:34:16.272Z,1017.5
2017-04-29T04:35:39.099Z,1017.52
2017-04-29T04:37:00.608Z,1017.53
2017-04-29T04:38:22.158Z,1017.5
2017-04-29T04:39:44.707Z,1017.5
2017-04-29T04:41:06.519Z,1017.51
2017-04-29T04:42:28.325Z,1017.57
2017-04-29T04:43:49.830Z,1017.54
2017-04-29T04:45:11.663Z,1017.56
2017-04-29T04:46:33.852Z,1017.56
2017-04-29T04:47:55.088Z,1017.55
2017-04-29T04:49:17.248Z,1017.56
2017-04-29T04:50:39.118Z,1017.52
2017-04-29T04:52:01.343Z,1017.49
2017-04-29T04:53:23.169Z,1017.46
2017-04-29T04:54:45.318Z,1017.47
2017-04-29T04:56:07.170Z,1017.46
2017-04-29T04:57:29.960Z,1017.46
2017-04-29T04:58:51.938Z,1017.48
2017-04-29T05:00:13.468Z,1017.48
2017-04-29T05:01:35.381Z,1017.51
2017-04-29T05:02:57.906Z,1017.51
2017-04-29T05:04:19.428Z,1017.52
2017-04-29T05:05:41.591Z,1017.52
2017-04-29T05:07:02.782Z,1017.53
2017-04-29T05:08:24.877Z,1017.52
2017-04-29T05:09:47.458Z,1017.54
2017-04-29T05:11:09.344Z,1017.55
2017-04-29T05:12:31.177Z,1017.53
2017-04-29T05:13:52.658Z,1017.57
2017-04-29T05:15:14.777Z,1017.62
2017-04-29T05:16:36.442Z,1017.6
2017-04-29T05:17:57.968Z,1017.64
2017-04-29T05:19:20.074Z,1017.7
2017-04-29T05:20:42.208Z,1017.77
2017-04-29T05:22:04.707Z,1017.81
2017-04-29T05:23:27.049Z,1017.76
2017-04-29T05:24:49.123Z,1017.8
2017-04-29T05:26:10.959Z,1017.83
2017-04-29T05:27:32.536Z,1017.85
2017-04-29T05:28:54.688Z,1017.91
2017-04-29T05:30:16.893Z,1017.91
2017-04-29T05:31:39.168Z,1017.73
2017-04-29T05:33:01.335Z,1017.78
2017-04-29T05:34:23.525Z,1018
2017-04-29T05:35:46.349Z,1017.9
2017-04-29T05:37:08.586Z,1018.03
2017-04-29T05:38:31.055Z,1018.02
2017-04-29T05:39:52.579Z,1018.08
2017-04-29T05:41:14.388Z,1018.09
2017-04-29T05:42:37.157Z,1018.22
2017-04-29T05:43:58.998Z,1018.21
2017-04-29T05:45:20.237Z,1018.22
2017-04-29T05:46:42.544Z,1018.25
2017-04-29T05:48:04.427Z,1018.31
2017-04-29T05:49:26.019Z,1018.08
2017-04-29T05:50:47.541Z,1018.11
2017-04-29T05:52:09.725Z,1018.11
2017-04-29T05:53:31.251Z,1018.05
2017-04-29T05:54:53.091Z,1018.06
2017-04-29T05:56:14.919Z,1018.05
2017-04-29T05:57:37.494Z,1018.01
2017-04-29T05:58:59.338Z,1018.04
2017-04-29T06:00:21.800Z,1018
2017-04-29T06:01:44.111Z,1018.02
2017-04-29T06:03:06.298Z,1018.04
2017-04-29T06:04:28.235Z,1018.1
2017-04-29T06:05:50.110Z,1018.12
2017-04-29T06:07:12.013Z,1018.15
2017-04-29T06:08:33.911Z,1018.29
2017-04-29T06:09:56.068Z,1018.39
2017-04-29T06:11:17.912Z,1018.17
2017-04-29T06:12:39.799Z,1018.22
2017-04-29T06:14:02.322Z,1018.22
2017-04-29T06:15:24.174Z,1018.24
2017-04-29T06:16:46.729Z,1018.19
2017-04-29T06:18:09.218Z,1018.21
2017-04-29T06:19:31.350Z,1018.29
2017-04-29T06:20:52.880Z,1018.25
2017-04-29T06:22:15.026Z,1018.28
2017-04-29T06:23:36.928Z,1018.27
2017-04-29T06:24:59.550Z,1018.29
2017-04-29T06:26:21.709Z,1018.29
2017-04-29T06:27:43.868Z,1018.32
2017-04-29T06:29:05.900Z,1018.34
2017-04-29T06:30:28.370Z,1018.37
2017-04-29T06:31:50.194Z,1018.36
2017-04-29T06:33:12.052Z,1018.32
2017-04-29T06:34:34.267Z,1018.34
2017-04-29T06:35:56.018Z,1018.32
2017-04-29T06:37:17.846Z,1018.35
2017-04-29T06:38:40.997Z,1018.34
2017-04-29T06:40:02.511Z,1018.34
2017-04-29T06:41:25.579Z,1018.34
2017-04-29T06:42:47.945Z,1018.34
2017-04-29T06:44:09.810Z,1018.32
2017-04-29T06:45:31.979Z,1018.29
2017-04-29T06:46:54.847Z,1018.29
2017-04-29T06:48:17.019Z,1018.31
2017-04-29T06:49:39.598Z,1018.37
2017-04-29T06:51:01.780Z,1018.62
2017-04-29T06:52:24.311Z,1018.65
2017-04-29T06:53:46.580Z,1018.92
2017-04-29T06:55:08.421Z,1018.89
2017-04-29T06:56:30.581Z,1018.89
2017-04-29T06:57:53.152Z,1018.66
2017-04-29T06:59:15.320Z,1018.6
2017-04-29T07:00:37.150Z,1018.57
2017-04-29T07:01:59.293Z,1018.61
2017-04-29T07:03:21.228Z,1018.74
2017-04-29T07:04:42.815Z,1018.91
2017-04-29T07:06:05.297Z,1018.75
2017-04-29T07:07:27.407Z,1018.71
2017-04-29T07:08:49.898Z,1019
2017-04-29T07:10:12.398Z,1019.03
2017-04-29T07:11:33.929Z,1018.93
2017-04-29T07:12:56.194Z,1019.02
2017-04-29T07:14:18.345Z,1019.07
2017-04-29T07:15:40.518Z,1018.9
2017-04-29T07:17:02.760Z,1019.13
2017-04-29T07:18:24.436Z,1018.84
2017-04-29T07:19:46.854Z,1018.85
2017-04-29T07:21:09.091Z,1018.89
2017-04-29T07:22:30.329Z,1018.87
2017-04-29T07:23:52.881Z,1018.92
2017-04-29T07:25:15.179Z,1018.95
2017-04-29T07:26:37.309Z,1018.93
2017-04-29T07:27:59.142Z,1018.92
2017-04-29T07:29:21.449Z,1018.86
2017-04-29T07:30:43.902Z,1018.83
2017-04-29T07:32:06.448Z,1018.87
2017-04-29T07:33:28.352Z,1018.85
2017-04-29T07:34:50.567Z,1018.81
2017-04-29T07:36:13.172Z,1018.78
2017-04-29T07:37:35.706Z,1018.86
2017-04-29T07:38:57.399Z,1019.06
2017-04-29T07:40:19.308Z,1018.99
2017-04-29T07:41:41.250Z,1019.24
2017-04-29T07:43:03.727Z,1018.91
2017-04-29T07:44:25.908Z,1019.04
2017-04-29T07:45:47.782Z,1019
2017-04-29T07:47:09.550Z,1018.95
2017-04-29T07:48:31.494Z,1018.92
2017-04-29T07:49:53.665Z,1018.92
2017-04-29T07:51:15.192Z,1018.98
2017-04-29T07:52:37.357Z,1018.94
2017-04-29T07:53:58.925Z,1018.99
2017-04-29T07:55:21.405Z,1018.99
2017-04-29T07:56:43.568Z,1018.96
2017-04-29T07:58:05.671Z,1018.98
2017-04-29T07:59:27.510Z,1018.95
2017-04-29T08:00:49.697Z,1018.99
2017-04-29T08:02:11.877Z,1018.99
2017-04-29T08:03:34.644Z,1019.04
2017-04-29T08:04:56.528Z,1018.99
2017-04-29T08:06:50.747Z,1018.97
2017-04-29T08:08:12.918Z,1018.91
2017-04-29T08:09:35.327Z,1018.92
2017-04-29T08:10:57.858Z,1018.92
2017-04-29T08:12:19.389Z,1018.88
2017-04-29T08:13:41.915Z,1018.93
2017-04-29T08:15:03.518Z,1018.92
2017-04-29T08:16:25.740Z,1018.96
2017-04-29T08:17:48.124Z,1018.96
2017-04-29T08:19:10.892Z,1018.92
2017-04-29T08:20:32.742Z,1018.85
2017-04-29T08:21:55.169Z,1018.83
2017-04-29T08:23:17.037Z,1018.87
2017-04-29T08:24:39.819Z,1018.85
2017-04-29T08:26:01.729Z,1018.85
2017-04-29T08:27:23.583Z,1018.77
2017-04-29T08:28:45.357Z,1018.77
2017-04-29T08:30:08.127Z,1018.78
2017-04-29T08:31:30.278Z,1018.75
2017-04-29T08:32:52.747Z,1018.75
2017-04-29T08:34:14.304Z,1018.76
2017-04-29T08:35:36.111Z,1018.79
2017-04-29T08:36:57.679Z,1018.75
2017-04-29T08:38:20.160Z,1018.77
2017-04-29T08:39:42.056Z,1018.83
2017-04-29T08:41:04.575Z,1018.79
2017-04-29T08:42:26.751Z,1018.89
2017-04-29T08:43:48.606Z,1018.95
2017-04-29T08:45:10.135Z,1018.84
2017-04-29T08:46:32.688Z,1018.94
2017-04-29T08:47:54.878Z,1019
2017-04-29T08:49:17.530Z,1018.97
2017-04-29T08:50:40.107Z,1018.98
2017-04-29T08:52:02.691Z,1018.95
2017-04-29T08:53:24.903Z,1018.88
2017-04-29T08:54:46.471Z,1018.92
2017-04-29T08:56:08.647Z,1018.98
2017-04-29T08:57:31.120Z,1019.03
2017-04-29T08:58:53.083Z,1018.95
2017-04-29T09:00:14.699Z,1018.98
2017-04-29T09:01:37.279Z,1018.98
2017-04-29T09:02:59.615Z,1018.94
2017-04-29T09:04:21.860Z,1019.07
2017-04-29T09:05:44.075Z,1019.04
2017-04-29T09:07:05.912Z,1019.08
2017-04-29T09:08:28.371Z,1019.1
2017-04-29T09:09:50.684Z,1019.11
2017-04-29T09:11:12.207Z,1019.11
2017-04-29T09:12:34.749Z,1019.1
2017-04-29T09:13:57.538Z,1019.09
2017-04-29T09:15:19.702Z,1019.13
2017-04-29T09:16:41.891Z,1019.08
2017-04-29T09:18:03.783Z,1019.11
2017-04-29T09:19:25.896Z,1019.09
2017-04-29T09:20:48.406Z,1019.11
2017-04-29T09:22:10.242Z,1019.1
2017-04-29T09:23:32.405Z,1019.11
2017-04-29T09:24:54.567Z,1019.16
2017-04-29T09:26:16.099Z,1019.08
2017-04-29T09:27:38.305Z,1019.04
2017-04-29T09:28:59.562Z,1019.03
2017-04-29T09:30:21.705Z,1019.01
2017-04-29T09:31:43.867Z,1018.93
2017-04-29T09:33:06.167Z,1018.93
2017-04-29T09:34:28.637Z,1018.88
2017-04-29T09:36:23.023Z,1018.83
2017-04-29T09:37:45.509Z,1018.83
2017-04-29T09:39:07.999Z,1018.81
2017-04-29T09:40:30.150Z,1018.82
2017-04-29T09:41:52.669Z,1018.85
2017-04-29T09:43:14.854Z,1018.8
2017-04-29T09:44:37.356Z,1018.85
2017-04-29T09:45:59.553Z,1018.91
2017-04-29T09:47:21.398Z,1018.93
2017-04-29T09:48:43.863Z,1018.89
2017-04-29T09:50:06.080Z,1018.93
2017-04-29T09:51:28.183Z,1018.93
2017-04-29T09:52:50.330Z,1018.95
2017-04-29T09:54:12.926Z,1018.93
2017-04-29T09:55:35.216Z,1018.89
2017-04-29T09:56:56.682Z,1018.96
2017-04-29T09:58:18.840Z,1018.94
2017-04-29T09:59:41.309Z,1018.94
2017-04-29T10:01:03.489Z,1018.91
2017-04-29T10:02:26.315Z,1018.83
2017-04-29T10:03:48.572Z,1018.74
2017-04-29T10:05:10.885Z,1018.77
2017-04-29T10:06:32.747Z,1018.72
2017-04-29T10:07:55.499Z,1018.75
2017-04-29T10:09:17.971Z,1018.7
2017-04-29T10:10:40.465Z,1018.77
2017-04-29T10:12:02.640Z,1018.84
2017-04-29T10:13:24.273Z,1018.77
2017-04-29T10:14:46.781Z,1018.86
2017-04-29T10:16:09.089Z,1018.88
2017-04-29T10:17:31.665Z,1018.92
2017-04-29T10:18:54.396Z,1018.93
2017-04-29T10:20:15.925Z,1018.9
2017-04-29T10:21:38.215Z,1018.97
2017-04-29T10:23:00.706Z,1019
2017-04-29T10:24:23.106Z,1019.03
2017-04-29T10:25:44.676Z,1019.06
2017-04-29T10:27:07.210Z,1019.04
2017-04-29T10:28:29.370Z,1019.02
2017-04-29T10:29:51.846Z,1019.1
2017-04-29T10:31:14.019Z,1019.1
2017-04-29T10:32:36.174Z,1019.13
2017-04-29T10:33:58.334Z,1019.09
2017-04-29T10:35:20.146Z,1019.05
2017-04-29T10:36:42.335Z,1018.98
2017-04-29T10:38:04.169Z,1019.03
2017-04-29T10:39:26.366Z,1019.12
2017-04-29T10:40:48.434Z,1019.14
2017-04-29T10:42:10.289Z,1019.17
2017-04-29T10:43:32.505Z,1019.18
2017-04-29T10:44:54.475Z,1019.24
2017-04-29T10:46:17.079Z,1019.24
2017-04-29T10:47:39.275Z,1019.25
2017-04-29T10:49:01.544Z,1019.25
2017-04-29T10:50:23.326Z,1019.16
2017-04-29T10:51:45.405Z,1019.13
2017-04-29T10:53:07.707Z,1019.14
2017-04-29T10:54:29.907Z,1019.12
2017-04-29T10:55:51.737Z,1019.1
2017-04-29T10:57:16.129Z,1019.03
2017-04-29T10:58:38.644Z,1018.96
2017-04-29T11:00:00.873Z,1018.93
2017-04-29T11:01:23.036Z,1018.92
2017-04-29T11:02:47.017Z,1018.9
2017-04-29T11:04:09.206Z,1018.91
2017-04-29T11:05:31.902Z,1018.94
2017-04-29T11:06:54.050Z,1019.01
2017-04-29T11:08:16.177Z,1019.07
2017-04-29T11:09:38.660Z,1019.07
2017-04-29T11:11:01.131Z,1019.08
2017-04-29T11:12:23.020Z,1019.1
2017-04-29T11:13:45.812Z,1019.12
2017-04-29T11:15:07.988Z,1019.1
2017-04-29T11:16:30.470Z,1019.13
2017-04-29T11:17:52.632Z,1019.14
2017-04-29T11:19:16.624Z,1019.1
2017-04-29T11:20:38.510Z,1019.06
2017-04-29T11:22:01.043Z,1019.1
2017-04-29T11:23:22.908Z,1019.12
2017-04-29T11:24:45.739Z,1019.1
2017-04-29T11:26:08.249Z,1019.15
2017-04-29T11:27:30.118Z,1019.12
2017-04-29T11:28:51.989Z,1019.14
2017-04-29T11:30:15.686Z,1019.17
2017-04-29T11:31:37.520Z,1019.15
2017-04-29T11:32:59.774Z,1019.1
2017-04-29T11:34:22.027Z,1019.08
2017-04-29T11:35:44.940Z,1019.12
2017-04-29T11:37:06.786Z,1019.05
2017-04-29T11:38:29.317Z,1019.15
2017-04-29T11:39:51.909Z,1019.12
2017-04-29T11:41:14.233Z,1019.12
2017-04-29T11:42:36.425Z,1019.11
2017-04-29T11:43:58.634Z,1019.07
2017-04-29T11:45:20.800Z,1019.12
2017-04-29T11:46:43.322Z,1019.1
2017-04-29T11:48:05.818Z,1019.12
2017-04-29T11:49:28.019Z,1019.14
2017-04-29T11:50:50.298Z,1019.16
2017-04-29T11:52:13.054Z,1019.15
2017-04-29T11:53:34.940Z,1019.14
2017-04-29T11:54:57.110Z,1019.13
2017-04-29T11:56:19.627Z,1019.12
2017-04-29T11:57:42.424Z,1019.16
2017-04-29T11:59:04.262Z,1019.23
2017-04-29T12:00:25.827Z,1019.27
2017-04-29T12:01:47.687Z,1019.26
2017-04-29T12:03:10.131Z,1019.29
2017-04-29T12:04:32.339Z,1019.21
2017-04-29T12:05:54.549Z,1019.27
2017-04-29T12:07:17.031Z,1019.3
2017-04-29T12:08:39.577Z,1019.31
2017-04-29T12:10:01.474Z,1019.35
2017-04-29T12:11:23.649Z,1019.35
2017-04-29T12:12:45.881Z,1019.36
2017-04-29T12:14:08.377Z,1019.38
2017-04-29T12:15:30.232Z,1019.37
2017-04-29T12:16:52.100Z,1019.36
2017-04-29T12:18:13.963Z,1019.33
2017-04-29T12:19:36.414Z,1019.31
2017-04-29T12:20:58.258Z,1019.29
2017-04-29T12:22:20.173Z,1019.23
2017-04-29T12:23:42.037Z,1019.29
2017-04-29T12:25:03.960Z,1019.3
2017-04-29T12:26:26.126Z,1019.33
2017-04-29T12:27:48.623Z,1019.31
2017-04-29T12:29:10.598Z,1019.34
2017-04-29T12:30:32.817Z,1019.37
2017-04-29T12:31:54.987Z,1019.38
2017-04-29T12:33:16.930Z,1019.38
2017-04-29T12:34:38.798Z,1019.41
2017-04-29T12:36:01.305Z,1019.36
2017-04-29T12:37:23.497Z,1019.43
2017-04-29T12:38:45.781Z,1019.46
2017-04-29T12:40:08.608Z,1019.4
2017-04-29T12:41:31.381Z,1019.39
2017-04-29T12:42:53.053Z,1019.33
2017-04-29T12:44:15.233Z,1019.32
2017-04-29T12:45:37.737Z,1019.26
2017-04-29T12:47:00.498Z,1019.25
2017-04-29T12:48:22.360Z,1019.26
2017-04-29T12:49:44.547Z,1019.2
2017-04-29T12:51:06.843Z,1019.18
2017-04-29T12:52:29.869Z,1019.22
2017-04-29T12:53:52.378Z,1019.12
2017-04-29T12:55:14.559Z,1019.16
2017-04-29T12:56:36.737Z,1019.19
2017-04-29T12:57:59.248Z,1019.22
2017-04-29T12:59:21.227Z,1019.25
2017-04-29T13:00:43.499Z,1019.31
2017-04-29T13:02:05.425Z,1019.32
2017-04-29T13:03:28.219Z,1019.32
2017-04-29T13:04:50.416Z,1019.37
2017-04-29T13:06:12.686Z,1019.36
2017-04-29T13:07:35.157Z,1019.28
2017-04-29T13:08:58.147Z,1019.24
2017-04-29T13:10:20.318Z,1019.2
2017-04-29T13:11:42.495Z,1019.24
2017-04-29T13:13:04.339Z,1019.2
2017-04-29T13:14:26.492Z,1019.2
2017-04-29T13:15:48.873Z,1019.18
2017-04-29T13:17:10.416Z,1019.15
2017-04-29T13:18:32.998Z,1019.18
2017-04-29T13:19:55.474Z,1019.22
2017-04-29T13:21:17.646Z,1019.2
2017-04-29T13:22:39.500Z,1019.14
2017-04-29T13:24:01.699Z,1019.15
2017-04-29T13:25:24.597Z,1019.16
2017-04-29T13:26:46.321Z,1019.25
2017-04-29T13:28:08.513Z,1019.31
2017-04-29T13:29:30.267Z,1019.32
2017-04-29T13:30:51.828Z,1019.3
2017-04-29T13:32:13.704Z,1019.32
2017-04-29T13:33:35.597Z,1019.38
2017-04-29T13:34:57.159Z,1019.42
2017-04-29T13:36:20.283Z,1019.44
2017-04-29T13:37:42.462Z,1019.38
2017-04-29T13:39:05.040Z,1019.39
2017-04-29T13:40:27.207Z,1019.35
2017-04-29T13:41:49.613Z,1019.34
2017-04-29T13:43:12.005Z,1019.38
2017-04-29T13:44:34.245Z,1019.38
2017-04-29T13:45:55.479Z,1019.37
2017-04-29T13:47:17.918Z,1019.38
2017-04-29T13:48:40.084Z,1019.38
2017-04-29T13:50:01.939Z,1019.36
2017-04-29T13:51:24.117Z,1019.32
2017-04-29T13:52:46.581Z,1019.27
2017-04-29T13:54:08.778Z,1019.37
2017-04-29T13:55:31.296Z,1019.32
2017-04-29T13:56:53.797Z,1019.35
2017-04-29T13:58:16.269Z,1019.35
2017-04-29T13:59:38.137Z,1019.4
2017-04-29T14:01:00.001Z,1019.44
2017-04-29T14:02:21.872Z,1019.45
2017-04-29T14:03:44.438Z,1019.4
2017-04-29T14:05:06.620Z,1019.44
2017-04-29T14:06:28.467Z,1019.37
2017-04-29T14:07:50.320Z,1019.46
2017-04-29T14:09:12.765Z,1019.46
2017-04-29T14:10:35.044Z,1019.4
2017-04-29T14:11:57.632Z,1019.41
2017-04-29T14:13:19.803Z,1019.41
2017-04-29T14:14:42.001Z,1019.39
2017-04-29T14:16:04.105Z,1019.5
2017-04-29T14:17:26.620Z,1019.45
2017-04-29T14:18:48.788Z,1019.47
2017-04-29T14:20:11.266Z,1019.47
2017-04-29T14:21:33.297Z,1019.34
2017-04-29T14:22:54.587Z,1019.4
2017-04-29T14:24:16.450Z,1019.41
2017-04-29T14:25:38.928Z,1019.45
2017-04-29T14:27:00.776Z,1019.49
2017-04-29T14:28:23.291Z,1019.54
2017-04-29T14:29:45.149Z,1019.59
2017-04-29T14:31:07.980Z,1019.53
2017-04-29T14:32:30.336Z,1019.47
2017-04-29T14:33:52.486Z,1019.48
2017-04-29T14:35:14.358Z,1019.47
2017-04-29T14:36:36.505Z,1019.51
2017-04-29T14:37:58.386Z,1019.43
2017-04-29T14:39:19.927Z,1019.41
2017-04-29T14:40:42.127Z,1019.49
2017-04-29T14:42:04.375Z,1019.41
2017-04-29T14:43:26.631Z,1019.34
2017-04-29T14:44:49.141Z,1019.49
2017-04-29T14:46:11.009Z,1019.58
2017-04-29T14:47:33.796Z,1019.48
2017-04-29T14:48:56.035Z,1019.48
2017-04-29T14:50:18.731Z,1019.45
2017-04-29T14:51:40.735Z,1019.36
2017-04-29T14:53:02.848Z,1019.41
2017-04-29T14:54:24.381Z,1019.38
2017-04-29T14:55:46.330Z,1019.42
2017-04-29T14:57:08.513Z,1019.34
2017-04-29T14:58:31.098Z,1019.47
2017-04-29T14:59:53.487Z,1019.49
2017-04-29T15:01:15.501Z,1019.45
2017-04-29T15:02:37.417Z,1019.3
2017-04-29T15:03:59.938Z,1019.35
2017-04-29T15:05:22.128Z,1019.42
2017-04-29T15:06:44.035Z,1019.52
2017-04-29T15:08:06.267Z,1019.42
2017-04-29T15:09:28.138Z,1019.38
2017-04-29T15:10:50.327Z,1019.37
2017-04-29T15:12:12.488Z,1019.36
2017-04-29T15:13:35.010Z,1019.35
2017-04-29T15:14:57.870Z,1019.42
2017-04-29T15:16:20.016Z,1019.43
2017-04-29T15:17:42.218Z,1019.4
2017-04-29T15:19:03.804Z,1019.39
2017-04-29T15:20:25.731Z,1019.36
2017-04-29T15:21:47.921Z,1019.37
2017-04-29T15:23:10.410Z,1019.37
2017-04-29T15:24:32.615Z,1019.35
2017-04-29T15:25:54.828Z,1019.33
2017-04-29T15:27:17.425Z,1019.38
2017-04-29T15:28:39.609Z,1019.37
2017-04-29T15:30:02.076Z,1019.31
2017-04-29T15:31:24.598Z,1019.37
2017-04-29T15:32:47.097Z,1019.4
2017-04-29T15:34:09.383Z,1019.33
2017-04-29T15:35:31.866Z,1019.36
2017-04-29T15:36:54.377Z,1019.43
2017-04-29T15:38:16.519Z,1019.42
2017-04-29T15:39:38.673Z,1019.48
2017-04-29T15:41:00.260Z,1019.36
2017-04-29T15:42:22.878Z,1019.43
2017-04-29T15:43:44.727Z,1019.41
2017-04-29T15:45:06.986Z,1019.4
2017-04-29T15:46:29.159Z,1019.44
2017-04-29T15:47:52.006Z,1019.45
2017-04-29T15:49:14.384Z,1019.46
2017-04-29T15:50:36.299Z,1019.47
2017-04-29T15:51:58.795Z,1019.44
2017-04-29T15:53:22.056Z,1019.52
2017-04-29T15:54:44.297Z,1019.47
2017-04-29T15:56:06.467Z,1019.45
2017-04-29T15:57:28.647Z,1019.49
2017-04-29T15:58:51.417Z,1019.52
2017-04-29T16:00:13.894Z,1019.46
2017-04-29T16:01:35.421Z,1019.5
2017-04-29T16:02:57.587Z,1019.49
2017-04-29T16:04:20.304Z,1019.5
2017-04-29T16:05:42.478Z,1019.54
2017-04-29T16:07:04.984Z,1019.56
2017-04-29T16:08:27.277Z,1019.51
2017-04-29T16:09:50.317Z,1019.5
2017-04-29T16:11:12.503Z,1019.51
2017-04-29T16:12:34.637Z,1019.52
2017-04-29T16:13:56.826Z,1019.54
2017-04-29T16:15:18.656Z,1019.5
2017-04-29T16:16:40.568Z,1019.5
2017-04-29T16:18:02.427Z,1019.54
2017-04-29T16:19:24.919Z,1019.57
2017-04-29T16:20:47.396Z,1019.54
2017-04-29T16:22:09.296Z,1019.57
2017-04-29T16:23:31.508Z,1019.56
2017-04-29T16:24:53.783Z,1019.53
2017-04-29T16:26:16.207Z,1019.5
2017-04-29T16:27:38.680Z,1019.57
2017-04-29T16:29:00.852Z,1019.48
2017-04-29T16:30:23.346Z,1019.48
2017-04-29T16:31:45.934Z,1019.48
2017-04-29T16:33:08.136Z,1019.5
2017-04-29T16:34:30.337Z,1019.45
2017-04-29T16:35:52.510Z,1019.47
2017-04-29T16:37:15.447Z,1019.47
2017-04-29T16:38:37.425Z,1019.48